Time;durP1;ratioP1;P1;durP2;ratioP2;P2;SDS_P1;SDS_P2;PMS_P1;PMS_P2;Temp;Humidity;BMP_temperature;BMP_pressure;BME280_temperature;BME280_humidity;BME280_pressure;Samples;Min_cycle;Max_cycle;Signal;HPM_P1;HPM_P2
2021/12/15 00:00:27;;;;;;;103.40;50.20;;;;;;;2.05;87.57;101485.23;84301;1337;22702;-69
2021/12/15 00:02:45;;;;;;;94.60;47.40;;;;;;;2.06;87.71;101486.78;84310;1339;25781;-69
2021/12/15 00:04:53;;;;;;;104.20;51.20;;;;;;;2.06;87.64;101488.34;84158;1338;22622;-69
2021/12/15 00:06:59;;;;;;;102.10;49.10;;;;;;;2.05;87.61;101488.83;84307;1337;23974;-75
2021/12/15 00:09:08;;;;;;;99.90;47.30;;;;;;;2.03;87.38;101488.30;84301;1337;24328;-74
2021/12/15 00:11:17;;;;;;;102.00;47.40;;;;;;;2.04;87.41;101485.90;84323;1337;23358;-72
2021/12/15 00:13:23;;;;;;;93.70;47.20;;;;;;;2.05;87.62;101487.63;84318;1338;22603;-68
2021/12/15 00:15:30;;;;;;;94.60;48.40;;;;;;;2.08;87.92;101491.30;84308;1335;22619;-69
2021/12/15 00:17:40;;;;;;;94.50;46.50;;;;;;;2.09;87.86;101488.56;84273;1337;22613;-74
2021/12/15 00:19:47;;;;;;;97.40;49.90;;;;;;;2.09;87.80;101487.35;84307;1336;22620;-74
2021/12/15 00:21:54;;;;;;;101.30;47.90;;;;;;;2.10;87.69;101482.70;84298;1338;22647;-70
2021/12/15 00:24:01;;;;;;;97.80;46.30;;;;;;;2.08;87.75;101479.42;84281;1338;24137;-68
2021/12/15 00:26:11;;;;;;;102.70;45.90;;;;;;;2.07;87.72;101481.13;84276;1332;22660;-68
2021/12/15 00:28:18;;;;;;;99.30;46.60;;;;;;;2.07;87.74;101478.72;84313;1337;22613;-70
2021/12/15 00:30:25;;;;;;;96.80;47.40;;;;;;;2.09;87.68;101475.98;84293;1337;23833;-67
2021/12/15 00:32:32;;;;;;;97.00;47.40;;;;;;;2.10;87.80;101480.47;84328;1338;22633;-75
2021/12/15 00:34:40;;;;;;;91.20;44.90;;;;;;;2.12;87.80;101485.85;84292;1337;22625;-74
2021/12/15 00:36:50;;;;;;;94.00;47.40;;;;;;;2.15;87.86;101487.08;84281;1338;24236;-69
2021/12/15 00:39:00;;;;;;;96.10;48.70;;;;;;;2.16;87.82;101490.36;84310;1338;25474;-68
2021/12/15 00:41:07;;;;;;;110.50;50.40;;;;;;;2.16;87.95;101484.86;84289;1337;22695;-70
2021/12/15 00:43:16;;;;;;;103.70;47.80;;;;;;;2.15;87.78;101492.08;84295;1334;22627;-70
2021/12/15 00:45:26;;;;;;;90.30;45.00;;;;;;;2.14;87.87;101498.79;84331;1337;22639;-69
2021/12/15 00:47:32;;;;;;;90.20;46.20;;;;;;;2.16;87.79;101511.20;84251;1338;22619;-75
2021/12/15 00:49:42;;;;;;;94.20;47.00;;;;;;;2.16;87.54;101517.76;84291;1338;22668;-75
2021/12/15 00:51:49;;;;;;;88.50;45.50;;;;;;;2.17;87.71;101516.73;84308;1338;22651;-68
2021/12/15 00:53:56;;;;;;;94.60;44.90;;;;;;;2.17;87.40;101517.77;84286;1338;22604;-69
2021/12/15 00:56:02;;;;;;;96.70;46.90;;;;;;;2.15;87.69;101516.86;84323;1337;24337;-69
2021/12/15 00:58:12;;;;;;;99.00;47.20;;;;;;;2.14;87.55;101519.78;84306;1337;22944;-69
2021/12/15 01:00:21;;;;;;;85.30;42.00;;;;;;;2.13;87.72;101520.81;84290;1339;22609;-69
2021/12/15 01:02:28;;;;;;;81.00;41.60;;;;;;;2.15;87.58;101527.71;84310;1338;24393;-69
2021/12/15 01:04:34;;;;;;;91.60;43.90;;;;;;;2.16;87.54;101531.16;84298;1337;23973;-70
2021/12/15 01:06:45;;;;;;;84.90;44.00;;;;;;;2.19;87.59;101530.87;84282;1337;22916;-74
2021/12/15 01:08:57;;;;;;;88.30;43.80;;;;;;;2.21;87.53;101530.73;84304;1338;22626;-74
2021/12/15 01:11:11;;;;;;;95.80;46.80;;;;;;;2.23;87.67;101529.55;84079;1341;22733;-74
2021/12/15 01:20:39;;;;;;;85.50;38.60;;;;;;;2.19;87.55;101530.70;84313;1337;23090;-69
2021/12/15 01:22:47;;;;;;;87.20;43.40;;;;;;;2.20;87.47;101525.71;84313;1337;22622;-76
2021/12/15 01:24:57;;;;;;;80.70;40.20;;;;;;;2.22;87.63;101524.03;84299;1338;24295;-75
2021/12/15 01:27:04;;;;;;;84.00;40.90;;;;;;;2.25;87.67;101526.99;84321;1338;22603;-71
2021/12/15 01:29:14;;;;;;;85.20;42.30;;;;;;;2.27;87.78;101534.27;84263;1336;22640;-69
2021/12/15 01:31:23;;;;;;;82.50;42.20;;;;;;;2.28;87.68;101533.59;84293;1338;23799;-73
2021/12/15 01:33:33;;;;;;;78.70;41.10;;;;;;;2.28;87.52;101526.02;84297;1335;22893;-74
2021/12/15 01:35:42;;;;;;;78.70;38.30;;;;;;;2.25;87.41;101520.63;84268;1336;24113;-74
2021/12/15 01:37:49;;;;;;;84.60;42.00;;;;;;;2.24;87.59;101521.30;84286;1337;22671;-68
2021/12/15 01:39:56;;;;;;;71.20;36.90;;;;;;;2.26;87.41;101520.45;84284;1337;22625;-69
2021/12/15 01:42:06;;;;;;;77.70;41.80;;;;;;;2.26;87.23;101523.23;84274;1337;22719;-69
2021/12/15 01:46:58;;;;;;;79.50;41.40;;;;;;;2.27;87.12;101532.37;83736;1343;24261;-73
2021/12/15 01:49:10;;;;;;;74.40;38.70;;;;;;;2.26;87.37;101532.52;83786;1341;22634;-75
2021/12/15 01:51:20;;;;;;;81.80;40.20;;;;;;;2.24;87.45;101530.27;83757;1336;22596;-73
2021/12/15 01:53:27;;;;;;;88.80;42.00;;;;;;;2.22;87.33;101529.89;84287;1338;22636;-74
2021/12/15 01:55:36;;;;;;;72.10;36.90;;;;;;;2.23;87.37;101539.55;84290;1338;26634;-74
2021/12/15 01:57:47;;;;;;;71.10;36.90;;;;;;;2.23;87.17;101540.41;84255;1338;22802;-69
2021/12/15 01:59:57;;;;;;;70.30;36.20;;;;;;;2.22;86.98;101540.23;84285;1337;22682;-69
2021/12/15 02:02:03;;;;;;;79.60;41.40;;;;;;;2.23;87.16;101544.02;84307;1337;22818;-69
2021/12/15 02:04:10;;;;;;;72.90;38.70;;;;;;;2.23;86.91;101540.07;84273;1337;23970;-68
2021/12/15 02:06:17;;;;;;;76.70;40.10;;;;;;;2.22;87.04;101538.67;84319;1333;22634;-72
2021/12/15 02:08:24;;;;;;;77.30;39.30;;;;;;;2.20;86.92;101540.88;84274;1336;22615;-75
2021/12/15 02:10:33;;;;;;;73.30;37.70;;;;;;;2.17;86.95;101541.52;84264;1336;24093;-74
2021/12/15 02:12:41;;;;;;;71.30;35.30;;;;;;;2.14;86.99;101536.65;84306;1338;22617;-68
2021/12/15 02:14:51;;;;;;;79.10;37.50;;;;;;;2.13;86.82;101537.84;84282;1333;22827;-71
2021/12/15 02:16:57;;;;;;;71.20;35.90;;;;;;;2.12;86.71;101536.61;84297;1337;22732;-73
2021/12/15 02:19:07;;;;;;;68.10;37.20;;;;;;;2.12;86.77;101535.05;84308;1337;24343;-74
2021/12/15 02:21:18;;;;;;;65.20;36.30;;;;;;;2.12;86.86;101532.98;84278;1337;25461;-73
2021/12/15 02:23:32;;;;;;;64.40;34.90;;;;;;;2.12;86.87;101533.51;84282;1336;23948;-75
2021/12/15 02:25:42;;;;;;;69.00;34.60;;;;;;;2.12;86.93;101533.70;84289;1337;22647;-72
2021/12/15 02:27:51;;;;;;;67.10;35.30;;;;;;;2.11;86.83;101538.15;84298;1336;23075;-69
2021/12/15 02:30:05;;;;;;;68.10;36.20;;;;;;;2.10;86.83;101541.57;84282;1337;23967;-69
2021/12/15 02:32:19;;;;;;;67.90;32.70;;;;;;;2.06;86.89;101537.23;84291;1336;22852;-70
2021/12/15 02:34:54;;;;;;;65.30;34.60;;;;;;;2.05;86.96;101539.79;84315;1334;22683;-71
2021/12/15 02:37:16;;;;;;;64.20;32.40;;;;;;;2.09;87.11;101540.53;84317;1338;22592;-74
2021/12/15 02:39:25;;;;;;;61.20;32.60;;;;;;;2.11;87.18;101542.96;84297;1333;22631;-74
2021/12/15 02:41:32;;;;;;;68.20;36.00;;;;;;;2.12;87.02;101542.98;84299;1337;22602;-70
2021/12/15 02:43:38;;;;;;;64.90;33.70;;;;;;;2.14;87.24;101539.23;84292;1337;25545;-70
2021/12/15 02:45:45;;;;;;;66.00;33.90;;;;;;;2.16;87.13;101544.58;84300;1337;22609;-69
2021/12/15 02:47:52;;;;;;;66.90;34.20;;;;;;;2.12;86.89;101542.47;83571;1336;1003164;-75
2021/12/15 02:49:59;;;;;;;66.50;32.60;;;;;;;2.10;87.18;101541.23;84279;1338;25727;-73
2021/12/15 02:52:09;;;;;;;66.50;33.00;;;;;;;2.11;87.09;101541.24;84277;1337;22660;-69
2021/12/15 02:54:20;;;;;;;62.70;32.80;;;;;;;2.13;87.22;101540.59;83584;1336;1003174;-70
2021/12/15 02:56:26;;;;;;;62.20;32.60;;;;;;;2.15;87.30;101544.07;84294;1339;22618;-74
2021/12/15 02:58:35;;;;;;;63.50;32.50;;;;;;;2.18;87.43;101541.71;84257;1337;22636;-74
2021/12/15 03:00:49;;;;;;;63.00;32.20;;;;;;;2.20;87.47;101540.17;84269;1337;22671;-74
2021/12/15 03:05:26;;;;;;;67.00;32.90;;;;;;;2.23;87.68;101538.17;84244;1336;22635;-74
2021/12/15 03:07:42;;;;;;;59.00;28.90;;;;;;;2.23;87.73;101541.96;84260;1337;22725;-69
2021/12/15 03:17:00;;;;;;;62.10;30.70;;;;;;;2.28;87.71;101547.36;84266;1339;23946;-74
2021/12/15 03:19:11;;;;;;;55.10;29.20;;;;;;;2.28;87.81;101551.50;84288;1337;22600;-75
2021/12/15 03:21:24;;;;;;;58.60;30.50;;;;;;;2.30;87.64;101552.72;84312;1337;22607;-72
2021/12/15 03:23:36;;;;;;;66.60;32.10;;;;;;;2.28;87.76;101553.23;84273;1336;22712;-70
2021/12/15 03:25:45;;;;;;;58.00;30.50;;;;;;;2.28;87.57;101557.36;84292;1335;22595;-69
2021/12/15 03:35:33;;;;;;;62.80;31.10;;;;;;;2.30;87.28;101575.63;84263;1337;22593;-73
2021/12/15 03:37:48;;;;;;;58.70;33.50;;;;;;;2.29;87.28;101573.73;84267;1338;22734;-68
2021/12/15 03:39:57;;;;;;;57.50;28.40;;;;;;;2.31;87.52;101584.60;84273;1337;22600;-70
2021/12/15 03:42:09;;;;;;;60.10;31.10;;;;;;;2.30;87.31;101582.35;84320;1338;23018;-70
2021/12/15 03:44:16;;;;;;;62.10;28.20;;;;;;;2.29;87.31;101580.61;84276;1329;22824;-69
2021/12/15 03:46:23;;;;;;;55.10;28.50;;;;;;;2.29;87.14;101576.30;84307;1337;24236;-70
2021/12/15 03:48:31;;;;;;;62.20;30.10;;;;;;;2.28;87.16;101575.95;84285;1338;22615;-69
2021/12/15 03:50:42;;;;;;;57.80;29.80;;;;;;;2.32;87.39;101577.23;84269;1337;22837;-69
2021/12/15 03:52:49;;;;;;;56.90;30.10;;;;;;;2.37;87.26;101581.78;84313;1339;22650;-70
2021/12/15 03:54:56;;;;;;;63.90;31.40;;;;;;;2.36;87.23;101579.33;84088;1340;22623;-69
2021/12/15 03:57:04;;;;;;;58.00;31.70;;;;;;;2.36;87.34;101577.95;84271;1338;22810;-69
2021/12/15 03:59:14;;;;;;;63.30;30.30;;;;;;;2.35;87.13;101582.24;84275;1338;23936;-70
2021/12/15 04:01:22;;;;;;;59.80;31.10;;;;;;;2.34;87.33;101584.30;84305;1337;22814;-69
2021/12/15 04:03:35;;;;;;;57.20;28.90;;;;;;;2.32;87.32;101589.79;84265;1337;22745;-69
2021/12/15 04:05:42;;;;;;;57.50;26.00;;;;;;;2.32;87.24;101590.48;84313;1338;23579;-70
2021/12/15 04:07:50;;;;;;;59.20;27.80;;;;;;;2.33;87.43;101589.46;84280;1331;22747;-69
2021/12/15 04:09:57;;;;;;;56.10;27.30;;;;;;;2.36;87.54;101594.99;84263;1337;23053;-70
2021/12/15 04:12:04;;;;;;;54.40;28.40;;;;;;;2.39;87.58;101590.23;84307;1334;24847;-75
2021/12/15 04:14:19;;;;;;;57.60;29.60;;;;;;;2.40;87.48;101586.62;84282;1337;24685;-74
2021/12/15 04:16:42;;;;;;;57.20;27.70;;;;;;;2.42;87.80;101593.55;84288;1338;22593;-70
2021/12/15 04:18:49;;;;;;;50.40;27.50;;;;;;;2.40;87.51;101593.35;84275;1338;22684;-70
2021/12/15 04:20:56;;;;;;;54.40;27.80;;;;;;;2.36;87.30;101593.97;84300;1339;26620;-69
2021/12/15 04:23:03;;;;;;;59.70;29.00;;;;;;;2.35;87.29;101590.16;84054;1341;23989;-68
2021/12/15 04:25:11;;;;;;;54.30;29.00;;;;;;;2.37;87.64;101594.35;84288;1337;22593;-68
2021/12/15 04:27:21;;;;;;;53.90;29.50;;;;;;;2.39;87.72;101596.59;84347;1338;25458;-68
2021/12/15 04:29:29;;;;;;;57.30;28.10;;;;;;;2.41;87.80;101600.95;84277;1338;23997;-69
2021/12/15 04:31:38;;;;;;;54.60;28.80;;;;;;;2.43;87.74;101608.20;84273;1339;24294;-70
2021/12/15 04:33:46;;;;;;;56.20;27.70;;;;;;;2.44;87.61;101616.83;84306;1337;22621;-68
2021/12/15 04:35:54;;;;;;;57.90;29.70;;;;;;;2.44;87.75;101614.23;84280;1338;23968;-69
2021/12/15 04:38:01;;;;;;;56.10;26.90;;;;;;;2.43;87.62;101621.98;84268;1336;25307;-69
2021/12/15 04:40:10;;;;;;;59.60;29.00;;;;;;;2.41;87.41;101617.30;84286;1333;22964;-69
2021/12/15 04:42:21;;;;;;;59.50;28.60;;;;;;;2.41;87.37;101619.70;84279;1337;23069;-71
2021/12/15 04:44:32;;;;;;;55.60;26.80;;;;;;;2.44;87.32;101612.86;84280;1334;25546;-68
2021/12/15 04:46:43;;;;;;;53.50;27.60;;;;;;;2.45;87.48;101617.70;84321;1337;24254;-68
2021/12/15 04:48:50;;;;;;;53.10;27.50;;;;;;;2.44;87.40;101622.17;84285;1339;22602;-67
2021/12/15 04:51:00;;;;;;;55.60;28.00;;;;;;;2.44;87.22;101627.15;84281;1337;24349;-70
2021/12/15 04:53:06;;;;;;;57.60;28.60;;;;;;;2.42;87.03;101633.50;83785;1337;696065;-68
2021/12/15 04:55:13;;;;;;;67.00;28.50;;;;;;;2.42;87.27;101637.45;84285;1337;22651;-71
2021/12/15 04:57:21;;;;;;;54.90;29.20;;;;;;;2.43;87.43;101636.27;84313;1338;26548;-74
2021/12/15 04:59:28;;;;;;;56.60;27.60;;;;;;;2.44;87.13;101635.08;84268;1338;23800;-76
2021/12/15 05:01:37;;;;;;;52.10;26.90;;;;;;;2.45;87.35;101634.05;84287;1334;23809;-67
2021/12/15 05:03:44;;;;;;;55.30;28.50;;;;;;;2.49;87.39;101634.13;84265;1333;23251;-68
2021/12/15 05:05:54;;;;;;;55.30;26.80;;;;;;;2.50;87.44;101635.16;84265;1338;22870;-70
2021/12/15 05:08:01;;;;;;;57.90;29.40;;;;;;;2.51;87.35;101628.47;84296;1338;22602;-69
2021/12/15 05:10:08;;;;;;;56.80;28.20;;;;;;;2.52;87.38;101631.60;82882;1338;1003384;-69
2021/12/15 05:12:15;;;;;;;47.70;28.00;;;;;;;2.48;86.96;101632.39;84293;1338;25973;-76
2021/12/15 05:14:23;;;;;;;54.00;28.10;;;;;;;2.44;86.95;101629.05;84276;1338;22703;-76
2021/12/15 05:16:32;;;;;;;58.70;30.00;;;;;;;2.43;87.05;101628.70;84296;1338;22723;-69
2021/12/15 05:18:42;;;;;;;55.80;28.80;;;;;;;2.43;87.13;101636.28;84300;1338;23132;-69
2021/12/15 05:20:53;;;;;;;57.80;28.50;;;;;;;2.47;87.32;101636.00;84294;1340;25466;-70
2021/12/15 05:23:03;;;;;;;53.60;30.10;;;;;;;2.50;87.35;101641.04;84291;1337;22851;-76
2021/12/15 05:25:11;;;;;;;;;;;;;;;2.51;87.15;101644.33;84310;1338;24016;-75
2021/12/15 05:27:21;;;;;;;59.80;28.20;;;;;;;2.49;87.22;101645.48;84306;1337;25414;-76
2021/12/15 05:29:28;;;;;;;59.40;31.10;;;;;;;2.50;87.36;101641.71;84292;1337;24112;-69
2021/12/15 05:31:35;;;;;;;55.20;28.20;;;;;;;2.47;87.17;101643.75;84277;1338;22599;-75
2021/12/15 05:33:42;;;;;;;55.30;27.60;;;;;;;2.45;87.22;101647.33;84306;1335;24339;-76
2021/12/15 05:35:48;;;;;;;56.90;27.80;;;;;;;2.45;87.15;101649.90;84063;1339;22764;-74
2021/12/15 05:37:59;;;;;;;53.70;27.00;;;;;;;2.44;86.97;101650.59;84279;1336;24263;-69
2021/12/15 05:40:07;;;;;;;52.60;28.80;;;;;;;2.43;86.86;101650.57;84276;1336;22883;-68
2021/12/15 05:42:18;;;;;;;51.90;28.60;;;;;;;2.43;87.03;101660.22;84255;1339;22641;-76
2021/12/15 05:44:26;;;;;;;60.00;29.50;;;;;;;2.44;87.20;101661.44;84302;1339;22625;-73
2021/12/15 05:46:35;;;;;;;60.10;30.40;;;;;;;2.47;87.22;101663.05;84262;1333;23180;-69
2021/12/15 05:48:45;;;;;;;57.00;28.90;;;;;;;2.46;87.02;101662.84;82864;1338;1003144;-69
2021/12/15 05:50:52;;;;;;;59.60;30.80;;;;;;;2.44;86.99;101670.39;84100;1340;22622;-73
2021/12/15 05:53:02;;;;;;;57.20;27.70;;;;;;;2.42;86.99;101666.23;84255;1337;26636;-70
2021/12/15 05:55:10;;;;;;;57.60;27.50;;;;;;;2.42;86.87;101662.62;84274;1338;22605;-68
2021/12/15 05:57:20;;;;;;;52.80;28.00;;;;;;;2.42;86.88;101662.80;84317;1338;22633;-75
2021/12/15 05:59:27;;;;;;;52.60;27.10;;;;;;;2.44;86.99;101662.30;84281;1340;25463;-74
2021/12/15 06:01:34;;;;;;;50.80;27.50;;;;;;;2.46;86.95;101662.50;84285;1337;22600;-76
2021/12/15 06:03:43;;;;;;;56.20;29.10;;;;;;;2.46;87.01;101665.06;84286;1336;25284;-74
2021/12/15 06:05:50;;;;;;;55.00;29.00;;;;;;;2.47;87.03;101666.83;84065;1340;22607;-74
2021/12/15 06:07:57;;;;;;;54.50;27.30;;;;;;;2.46;87.01;101670.06;84275;1338;22624;-74
2021/12/15 06:10:08;;;;;;;52.10;26.80;;;;;;;2.43;86.83;101671.92;84294;1338;26611;-73
2021/12/15 06:12:18;;;;;;;49.20;25.90;;;;;;;2.42;86.79;101667.60;83564;1337;1002909;-74
2021/12/15 06:14:28;;;;;;;47.80;26.20;;;;;;;2.43;87.02;101666.77;84299;1338;22810;-74
2021/12/15 06:16:38;;;;;;;49.20;26.80;;;;;;;2.45;87.04;101670.40;84279;1338;22643;-75
2021/12/15 06:18:48;;;;;;;53.30;26.90;;;;;;;2.47;87.02;101674.07;84258;1338;24302;-76
2021/12/15 06:20:56;;;;;;;;;;;;;;;2.47;86.95;101678.89;84286;1337;22742;-75
2021/12/15 06:23:09;;;;;;;54.80;27.00;;;;;;;2.42;86.80;101679.84;84267;1339;22612;-75
2021/12/15 06:25:19;;;;;;;50.00;26.80;;;;;;;2.42;87.02;101680.71;84292;1337;22615;-75
2021/12/15 06:27:30;;;;;;;58.20;28.80;;;;;;;2.42;87.08;101681.03;84261;1338;23986;-71
2021/12/15 06:29:37;;;;;;;52.50;24.90;;;;;;;2.42;87.33;101687.40;84289;1337;22602;-70
2021/12/15 06:31:43;;;;;;;48.00;24.00;;;;;;;2.42;87.00;101687.23;84288;1337;25469;-70
2021/12/15 06:33:54;;;;;;;49.30;24.90;;;;;;;2.42;87.02;101689.48;84279;1337;22749;-68
2021/12/15 06:36:04;;;;;;;;;;;;;;;2.42;86.95;101689.14;84187;1338;23163;-69
2021/12/15 06:38:14;;;;;;;49.30;24.90;;;;;;;2.42;87.08;101687.92;84284;1337;22613;-70
2021/12/15 06:40:24;;;;;;;46.50;25.10;;;;;;;2.44;87.43;101691.74;84290;1337;22858;-68
2021/12/15 06:42:34;;;;;;;47.00;26.40;;;;;;;2.45;87.31;101695.89;84298;1338;22623;-75
2021/12/15 06:44:44;;;;;;;51.70;26.10;;;;;;;2.45;87.28;101697.62;84303;1337;22603;-77
2021/12/15 06:47:17;;;;;;;;;;;;;;;2.43;86.96;101693.11;84318;1339;24223;-74
2021/12/15 06:59:00;;;;;;;42.10;22.30;;;;;;;2.35;86.98;101720.01;84266;1332;25533;-78
2021/12/15 07:01:07;;;;;;;47.50;25.60;;;;;;;2.37;87.13;101719.88;84289;1337;22605;-76
2021/12/15 07:03:17;;;;;;;43.90;24.30;;;;;;;2.41;87.31;101726.14;84277;1329;24247;-68
2021/12/15 07:05:24;;;;;;;45.10;23.60;;;;;;;2.45;87.45;101727.23;84269;1336;23976;-69
2021/12/15 07:07:34;;;;;;;47.90;24.90;;;;;;;2.43;87.01;101723.59;84311;1337;22615;-70
2021/12/15 07:09:44;;;;;;;50.50;23.80;;;;;;;2.42;87.30;101726.17;84100;1341;22616;-69
2021/12/15 07:11:52;;;;;;;47.70;23.70;;;;;;;2.45;87.36;101725.16;84312;1338;22606;-69
2021/12/15 07:13:58;;;;;;;42.80;21.30;;;;;;;2.47;87.25;101730.89;84299;1339;22664;-69
2021/12/15 07:16:10;;;;;;;41.20;22.30;;;;;;;2.48;87.06;101730.05;84281;1337;22755;-78
2021/12/15 07:18:27;;;;;;;43.50;24.40;;;;;;;2.50;87.16;101727.48;84264;1337;24167;-76
2021/12/15 07:20:41;;;;;;;48.30;26.80;;;;;;;2.53;87.36;101727.55;84283;1337;22639;-73
2021/12/15 07:22:48;;;;;;;53.10;28.20;;;;;;;2.57;87.65;101724.16;84295;1338;22638;-75
2021/12/15 07:24:58;;;;;;;55.30;27.10;;;;;;;2.59;87.51;101723.68;84266;1338;22617;-76
2021/12/15 07:27:08;;;;;;;56.10;28.30;;;;;;;2.58;87.43;101729.70;84283;1337;22640;-70
2021/12/15 07:29:17;;;;;;;49.80;25.00;;;;;;;2.60;87.41;101730.75;84294;1337;25613;-69
2021/12/15 07:31:24;;;;;;;46.20;26.70;;;;;;;2.63;87.40;101724.61;84253;1337;22626;-68
2021/12/15 07:33:34;;;;;;;44.30;24.10;;;;;;;2.66;87.31;101721.20;84100;1342;22663;-69
2021/12/15 07:35:43;;;;;;;46.10;24.70;;;;;;;2.66;87.09;101720.34;84277;1329;25584;-70
2021/12/15 07:37:50;;;;;;;47.60;25.40;;;;;;;2.67;87.10;101721.77;84309;1338;22612;-69
2021/12/15 07:39:59;;;;;;;41.10;23.40;;;;;;;2.67;87.29;101722.61;84285;1338;24315;-70
2021/12/15 07:42:07;;;;;;;41.10;24.20;;;;;;;2.67;87.20;101724.00;84317;1336;22621;-75
2021/12/15 07:44:17;;;;;;;51.30;26.50;;;;;;;2.66;87.09;101718.29;84289;1339;25374;-73
2021/12/15 07:46:23;;;;;;;45.30;24.40;;;;;;;2.66;87.15;101723.63;84279;1339;23925;-69
2021/12/15 07:48:34;;;;;;;43.70;23.30;;;;;;;2.68;87.27;101728.82;84287;1337;23938;-69
2021/12/15 07:50:45;;;;;;;40.70;22.40;;;;;;;2.72;87.31;101732.00;84277;1337;22599;-69
2021/12/15 07:52:53;;;;;;;42.70;23.20;;;;;;;2.74;87.18;101731.85;84309;1339;22622;-69
2021/12/15 07:54:59;;;;;;;41.60;22.50;;;;;;;2.77;87.18;101733.98;84294;1337;22608;-70
2021/12/15 07:57:16;;;;;;;51.30;24.70;;;;;;;2.80;87.26;101742.30;84294;1339;22701;-70
2021/12/15 07:59:26;;;;;;;44.80;22.90;;;;;;;2.81;87.13;101743.17;84270;1338;22603;-69
2021/12/15 08:01:33;;;;;;;45.90;25.20;;;;;;;2.81;87.21;101741.80;84270;1337;22565;-75
2021/12/15 08:03:41;;;;;;;51.90;26.30;;;;;;;2.83;87.36;101746.98;84283;1338;23075;-76
2021/12/15 08:05:49;;;;;;;44.30;23.20;;;;;;;2.88;87.56;101749.82;84269;1337;22632;-76
2021/12/15 08:08:11;;;;;;;41.80;23.00;;;;;;;2.90;87.23;101752.10;84283;1338;24251;-76
2021/12/15 08:10:22;;;;;;;42.10;21.50;;;;;;;2.94;87.10;101755.25;84298;1340;25275;-77
2021/12/15 08:12:32;;;;;;;42.00;23.30;;;;;;;2.97;87.26;101752.21;84280;1338;22606;-68
2021/12/15 08:14:41;;;;;;;41.20;23.40;;;;;;;3.01;87.39;101758.13;84069;1340;24261;-69
2021/12/15 08:16:48;;;;;;;47.10;23.10;;;;;;;3.04;87.23;101762.30;84296;1334;25514;-68
2021/12/15 08:18:55;;;;;;;45.60;23.40;;;;;;;3.07;87.21;101764.95;84273;1337;22607;-68
2021/12/15 08:21:06;;;;;;;52.90;27.00;;;;;;;3.08;87.28;101770.81;84290;1338;22601;-69
2021/12/15 08:23:14;;;;;;;50.00;25.80;;;;;;;3.07;87.19;101766.16;84110;1336;23939;-69
2021/12/15 08:25:20;;;;;;;45.10;25.00;;;;;;;3.07;87.26;101763.58;84286;1337;22907;-70
2021/12/15 08:27:30;;;;;;;44.50;22.80;;;;;;;3.11;87.12;101763.96;84276;1338;22602;-70
2021/12/15 08:29:37;;;;;;;41.80;23.60;;;;;;;3.11;87.05;101766.04;84289;1339;25334;-70
2021/12/15 08:31:47;;;;;;;39.90;23.10;;;;;;;3.13;87.15;101765.89;84306;1339;22607;-74
2021/12/15 08:33:57;;;;;;;43.80;25.20;;;;;;;3.15;86.92;101771.41;84264;1338;24267;-75
2021/12/15 08:36:06;;;;;;;49.10;24.50;;;;;;;3.18;87.10;101772.34;84313;1334;22633;-75
2021/12/15 08:38:15;;;;;;;51.70;26.90;;;;;;;3.19;87.28;101773.21;84265;1340;23935;-75
2021/12/15 08:40:22;;;;;;;49.10;27.00;;;;;;;3.20;87.12;101773.91;84283;1340;22661;-75
2021/12/15 08:42:30;;;;;;;45.90;24.60;;;;;;;3.20;87.09;101778.08;84287;1337;22603;-75
2021/12/15 08:44:36;;;;;;;48.40;24.60;;;;;;;3.23;87.04;101785.52;84277;1338;22767;-76
2021/12/15 08:46:45;;;;;;;44.70;24.20;;;;;;;3.26;87.08;101785.23;84279;1340;22600;-75
2021/12/15 08:48:55;;;;;;;46.60;26.00;;;;;;;3.27;86.83;101786.62;84264;1340;22951;-76
2021/12/15 08:51:02;;;;;;;48.90;26.20;;;;;;;3.28;86.96;101785.77;84279;1337;23953;-75
2021/12/15 08:53:11;;;;;;;52.20;27.40;;;;;;;3.30;87.11;101776.64;84282;1339;22621;-69
2021/12/15 08:55:19;;;;;;;61.40;28.00;;;;;;;3.32;86.94;101768.92;84291;1340;22641;-69
2021/12/15 08:57:26;;;;;;;49.20;28.00;;;;;;;3.32;87.03;101768.24;84304;1340;22626;-68
2021/12/15 08:59:33;;;;;;;61.80;30.20;;;;;;;3.33;86.92;101767.91;84298;1338;22646;-70
2021/12/15 09:01:43;;;;;;;55.80;28.70;;;;;;;3.33;86.64;101768.94;84209;1338;22615;-77
2021/12/15 09:03:50;;;;;;;54.10;27.80;;;;;;;3.32;86.66;101764.62;84297;1340;24263;-75
2021/12/15 09:05:58;;;;;;;53.50;28.20;;;;;;;3.31;86.62;101759.95;84297;1339;22613;-75
2021/12/15 09:08:06;;;;;;;47.50;26.00;;;;;;;3.32;86.65;101763.59;84191;1339;24181;-69
2021/12/15 09:10:13;;;;;;;51.10;28.10;;;;;;;3.32;86.61;101758.57;84288;1338;22606;-71
2021/12/15 09:12:20;;;;;;;52.30;26.60;;;;;;;3.29;86.77;101753.17;84288;1340;22613;-70
2021/12/15 09:14:28;;;;;;;52.40;27.40;;;;;;;3.27;86.70;101749.37;84279;1338;22592;-68
2021/12/15 09:16:35;;;;;;;46.50;25.60;;;;;;;3.25;86.54;101744.34;84306;1334;24138;-75
2021/12/15 09:18:44;;;;;;;43.00;23.40;;;;;;;3.23;86.49;101743.62;84292;1338;22615;-75
2021/12/15 09:20:54;;;;;;;42.50;23.00;;;;;;;3.21;86.46;101736.70;84298;1340;24248;-76
2021/12/15 09:23:06;;;;;;;47.00;25.10;;;;;;;3.20;86.41;101735.13;84262;1337;25310;-69
2021/12/15 09:25:13;;;;;;;38.10;22.40;;;;;;;3.19;86.55;101732.35;84272;1339;24155;-67
2021/12/15 09:27:20;;;;;;;38.80;23.30;;;;;;;3.21;86.70;101733.77;84281;1337;24313;-75
2021/12/15 09:29:27;;;;;;;49.00;24.80;;;;;;;3.24;86.95;101739.66;84281;1338;22602;-76
2021/12/15 09:31:34;;;;;;;47.20;24.30;;;;;;;3.26;86.92;101741.42;83606;1337;1002975;-76
2021/12/15 09:33:41;;;;;;;43.00;23.40;;;;;;;3.27;86.96;101741.27;84263;1337;22781;-77
2021/12/15 09:35:48;;;;;;;35.60;21.50;;;;;;;3.30;86.83;101745.98;84306;1339;22614;-76
2021/12/15 09:37:56;;;;;;;38.70;22.20;;;;;;;3.33;86.85;101742.02;84309;1338;22621;-76
2021/12/15 09:40:03;;;;;;;37.00;20.90;;;;;;;3.38;86.87;101743.98;84288;1337;22593;-76
2021/12/15 09:42:10;;;;;;;45.70;23.10;;;;;;;3.42;87.01;101742.52;84299;1338;22675;-67
2021/12/15 09:44:21;;;;;;;44.60;23.30;;;;;;;3.46;87.01;101742.03;84288;1337;22626;-70
2021/12/15 09:46:38;;;;;;;40.50;22.00;;;;;;;3.50;87.15;101736.74;84297;1338;25490;-69
2021/12/15 09:56:49;;;;;;;33.60;18.80;;;;;;;3.48;86.52;101725.67;84284;1340;22682;-76
2021/12/15 10:04:06;;;;;;;40.30;24.10;;;;;;;3.55;86.80;101727.15;84299;1337;25290;-74
2021/12/15 10:11:40;;;;;;;44.10;23.50;;;;;;;3.61;86.64;101708.23;84286;1338;22619;-68
2021/12/15 10:18:51;;;;;;;42.30;24.50;;;;;;;3.78;86.69;101697.20;84289;1337;23506;-71
2021/12/15 10:20:59;;;;;;;41.20;24.10;;;;;;;3.84;86.72;101701.60;84261;1338;22632;-71
2021/12/15 10:23:07;;;;;;;43.20;24.90;;;;;;;3.87;86.76;101704.90;84300;1340;22770;-70
2021/12/15 10:25:15;;;;;;;43.80;23.90;;;;;;;3.91;86.87;101701.15;84302;1337;22862;-71
2021/12/15 10:27:37;;;;;;;44.10;22.40;;;;;;;3.92;86.65;101700.47;84294;1338;23314;-76
2021/12/15 10:30:02;;;;;;;42.60;22.00;;;;;;;3.95;86.52;101695.50;84295;1339;24312;-68
2021/12/15 10:32:14;;;;;;;41.80;23.20;;;;;;;3.97;86.53;101694.47;84270;1339;23817;-68
2021/12/15 10:34:23;;;;;;;44.60;23.30;;;;;;;4.01;86.64;101691.59;84294;1338;25645;-66
2021/12/15 10:36:34;;;;;;;42.70;24.40;;;;;;;4.06;86.58;101701.30;84284;1337;24022;-70
2021/12/15 10:38:44;;;;;;;40.20;22.30;;;;;;;4.11;86.67;101704.30;84279;1340;22676;-75
2021/12/15 10:41:03;;;;;;;44.60;22.70;;;;;;;4.18;86.95;101710.23;84300;1336;22614;-77
2021/12/15 10:43:13;;;;;;;49.10;22.60;;;;;;;4.23;86.82;101702.34;84262;1336;22632;-69
2021/12/15 10:45:20;;;;;;;42.50;21.20;;;;;;;4.27;86.81;101703.58;83560;1338;1003709;-68
2021/12/15 10:47:27;;;;;;;40.20;21.30;;;;;;;4.31;86.95;101702.76;84290;1338;22614;-70
2021/12/15 10:49:42;;;;;;;39.10;20.90;;;;;;;4.35;86.63;101705.91;84300;1336;22938;-68
2021/12/15 10:51:50;;;;;;;38.30;21.70;;;;;;;4.38;86.63;101704.02;84287;1337;22596;-68
2021/12/15 10:53:59;;;;;;;42.90;23.20;;;;;;;4.39;86.29;101699.55;84315;1340;25523;-68